Baltic Marshall — C4KD2 — position and weather

sailwx.info

Track history (hours):
 
Tides and Currents Weather Stations Pressure Air Temp Water Temp Dewpoint Dewpoint Depression Visibility Wind Speed Wind Dir Waves Ship Positions

Baltic Marshall

Last reported at 2015-Jul-06 19:31 UTC. Time now 2015-Jul-07 13:12 UTC.
Position N 59°37' E 023°15'.

Length 183 m; draft 10.9 m.

Type: Ship. MMSI: 212118000.

Date/timePositionNaut miles runAvg speedWind from/ knotsBaromVisibWave heightAir tempDewpointWater temp
2015-Jul-06 19:31N 59°37' E 023°15'1212.1
2015-Jul-06 18:33N 59°40' E 023°37'1212.1
2015-Jul-06 17:33N 59°43' E 024°01'1312.7
2015-Jul-06 16:33N 59°40' E 024°25'1212.4
2015-Jul-06 15:33N 59°37' E 024°49'  
2015-Jul-04 10:19N 59°32' E 024°57'5 6.4
2015-Jul-04 09:33N 59°35' E 024°50'0 0.1
2015-Jul-04 08:30N 59°35' E 024°50'0 0.0
2015-Jul-04 07:33N 59°35' E 024°50'0 0.0
2015-Jul-04 06:30N 59°35' E 024°50'0 0.0
2015-Jul-04 05:33N 59°35' E 024°50'9 1.2
2015-Jul-03 21:33N 59°44' E 024°50'1110.5
2015-Jul-03 20:31N 59°53' E 025°02'4 1.1
2015-Jul-03 16:26N 59°55' E 025°10'0 0.0
2015-Jul-03 15:29N 59°55' E 025°10'0 0.0
2015-Jul-03 14:14N 59°55' E 025°10'0 0.0
2015-Jul-03 05:26N 59°55' E 025°10'0 0.0
2015-Jul-03 04:05N 59°55' E 025°10'0 0.0
2015-Jul-03 03:32N 59°55' E 025°10'0 0.0
2015-Jul-03 02:32N 59°55' E 025°10'0 0.0
2015-Jul-03 01:32N 59°55' E 025°10'0 0.0
2015-Jul-03 00:32N 59°55' E 025°10'0 0.0
2015-Jul-02 23:29N 59°55' E 025°10'0 0.0
2015-Jul-02 22:32N 59°55' E 025°10'0 0.0
2015-Jul-02 21:32N 59°55' E 025°10'0 0.1
2015-Jul-02 20:29N 59°55' E 025°10'4 4.0
2015-Jul-02 19:33N 59°54' E 025°17'1311.8
2015-Jul-02 18:28N 59°55' E 025°43'1312.7
2015-Jul-02 17:28N 59°58' E 026°07'1212.7
2015-Jul-02 16:33N 60°01' E 026°30'1212.4
2015-Jul-02 15:33N 59°60' E 026°55'1312.0
2015-Jul-02 14:28N 60°04' E 027°19'1112.5
2015-Jul-02 13:33N 60°10' E 027°39'1211.4
2015-Jul-02 12:33N 60°10' E 028°02'35 0.7
2015-Jun-30 12:30N 59°58' E 026°56'1313.3
2015-Jun-30 11:32N 59°58' E 026°30'1513.6
2015-Jun-30 10:25N 59°54' E 026°01'5513.7
2015-Jun-30 06:23N 59°42' E 024°14'1113.7
2015-Jun-30 05:33N 59°38' E 023°53'1413.9
2015-Jun-30 04:33N 59°34' E 023°27'33913.5
2015-Jun-29 03:32N 55°43' E 015°44'1414.0
2015-Jun-29 02:33N 55°37' E 015°22'1414.1
2015-Jun-29 01:33N 55°31' E 015°00'1414.1
2015-Jun-29 00:33N 55°24' E 014°39'1414.3
2015-Jun-28 23:34N 55°13' E 014°23'1313.2
2015-Jun-28 22:33N 55°10' E 013°60'1613.7
2015-Jun-28 21:24N 55°12' E 013°32'1214.0
2015-Jun-28 20:33N 55°13' E 013°12'1414.0
2015-Jun-28 19:34N 55°16' E 012°48'1111.1
2015-Jun-28 18:33N 55°26' E 012°40'1111.2
2015-Jun-28 17:33N 55°37' E 012°42'1212.2
2015-Jun-28 16:33N 55°49' E 012°42'1313.2
2015-Jun-28 15:34N 56°02' E 012°38'8 8.2
2015-Jun-28 14:33N 56°08' E 012°28'1110.6
2015-Jun-28 13:33N 56°14' E 012°12'1313.1
2015-Jun-28 12:33N 56°25' E 012°00'1413.7
2015-Jun-28 11:33N 56°39' E 011°54'1413.8
2015-Jun-28 10:33N 56°52' E 011°47'1313.4
2015-Jun-28 09:33N 57°05' E 011°39'1313.4
2015-Jun-28 08:33N 57°17' E 011°31'1313.3
2015-Jun-28 07:33N 57°29' E 011°21'1312.8
2015-Jun-28 06:33N 57°38' E 011°03'1414.1
2015-Jun-28 05:34N 57°47' E 010°43'40413.5
2015-Jun-26 23:31N 53°54' E 000°55'2613.5
2015-Jun-26 21:33N 53°37' E 000°21'9 9.5
2015-Jun-26 20:33N 53°35' E 000°06'9 9.5
2015-Jun-26 19:34N 53°38' W 000°09'  
Track history (hours):
 
Tides and Currents Weather Stations Pressure Air Temp Water Temp Dewpoint Dewpoint Depression Visibility Wind Speed Wind Dir Waves Ship Positions

Baltic Marshall

Last reported at 2015-Jul-06 19:31 UTC. Time now 2015-Jul-07 13:12 UTC.
Position N 59°37' E 023°15'.

Length 183 m; draft 10.9 m.

Type: Ship. MMSI: 212118000.

Date/timePositionNaut miles runAvg speedWind from/ knotsBaromVisibWave heightAir tempDewpointWater temp
2015-Jul-06 19:31N 59°37' E 023°15'1212.1
2015-Jul-06 18:33N 59°40' E 023°37'1212.1
2015-Jul-06 17:33N 59°43' E 024°01'1312.7
2015-Jul-06 16:33N 59°40' E 024°25'1212.4
2015-Jul-06 15:33N 59°37' E 024°49'  
2015-Jul-04 10:19N 59°32' E 024°57'5 6.4
2015-Jul-04 09:33N 59°35' E 024°50'0 0.1
2015-Jul-04 08:30N 59°35' E 024°50'0 0.0
2015-Jul-04 07:33N 59°35' E 024°50'0 0.0
2015-Jul-04 06:30N 59°35' E 024°50'0 0.0
2015-Jul-04 05:33N 59°35' E 024°50'9 1.2
2015-Jul-03 21:33N 59°44' E 024°50'1110.5
2015-Jul-03 20:31N 59°53' E 025°02'4 1.1
2015-Jul-03 16:26N 59°55' E 025°10'0 0.0
2015-Jul-03 15:29N 59°55' E 025°10'0 0.0
2015-Jul-03 14:14N 59°55' E 025°10'0 0.0
2015-Jul-03 05:26N 59°55' E 025°10'0 0.0
2015-Jul-03 04:05N 59°55' E 025°10'0 0.0
2015-Jul-03 03:32N 59°55' E 025°10'0 0.0
2015-Jul-03 02:32N 59°55' E 025°10'0 0.0
2015-Jul-03 01:32N 59°55' E 025°10'0 0.0
2015-Jul-03 00:32N 59°55' E 025°10'0 0.0
2015-Jul-02 23:29N 59°55' E 025°10'0 0.0
2015-Jul-02 22:32N 59°55' E 025°10'0 0.0
2015-Jul-02 21:32N 59°55' E 025°10'0 0.1
2015-Jul-02 20:29N 59°55' E 025°10'4 4.0
2015-Jul-02 19:33N 59°54' E 025°17'1311.8
2015-Jul-02 18:28N 59°55' E 025°43'1312.7
2015-Jul-02 17:28N 59°58' E 026°07'1212.7
2015-Jul-02 16:33N 60°01' E 026°30'1212.4
2015-Jul-02 15:33N 59°60' E 026°55'1312.0
2015-Jul-02 14:28N 60°04' E 027°19'1112.5
2015-Jul-02 13:33N 60°10' E 027°39'1211.4
2015-Jul-02 12:33N 60°10' E 028°02'35 0.7
2015-Jun-30 12:30N 59°58' E 026°56'1313.3
2015-Jun-30 11:32N 59°58' E 026°30'1513.6
2015-Jun-30 10:25N 59°54' E 026°01'5513.7
2015-Jun-30 06:23N 59°42' E 024°14'1113.7
2015-Jun-30 05:33N 59°38' E 023°53'1413.9
2015-Jun-30 04:33N 59°34' E 023°27'33913.5
2015-Jun-29 03:32N 55°43' E 015°44'1414.0
2015-Jun-29 02:33N 55°37' E 015°22'1414.1
2015-Jun-29 01:33N 55°31' E 015°00'1414.1
2015-Jun-29 00:33N 55°24' E 014°39'1414.3
2015-Jun-28 23:34N 55°13' E 014°23'1313.2
2015-Jun-28 22:33N 55°10' E 013°60'1613.7
2015-Jun-28 21:24N 55°12' E 013°32'1214.0
2015-Jun-28 20:33N 55°13' E 013°12'1414.0
2015-Jun-28 19:34N 55°16' E 012°48'1111.1
2015-Jun-28 18:33N 55°26' E 012°40'1111.2
2015-Jun-28 17:33N 55°37' E 012°42'1212.2
2015-Jun-28 16:33N 55°49' E 012°42'1313.2
2015-Jun-28 15:34N 56°02' E 012°38'8 8.2
2015-Jun-28 14:33N 56°08' E 012°28'1110.6
2015-Jun-28 13:33N 56°14' E 012°12'1313.1
2015-Jun-28 12:33N 56°25' E 012°00'1413.7
2015-Jun-28 11:33N 56°39' E 011°54'1413.8
2015-Jun-28 10:33N 56°52' E 011°47'1313.4
2015-Jun-28 09:33N 57°05' E 011°39'1313.4
2015-Jun-28 08:33N 57°17' E 011°31'1313.3
2015-Jun-28 07:33N 57°29' E 011°21'1312.8
2015-Jun-28 06:33N 57°38' E 011°03'1414.1
2015-Jun-28 05:34N 57°47' E 010°43'40413.5
2015-Jun-26 23:31N 53°54' E 000°55'2613.5
2015-Jun-26 21:33N 53°37' E 000°21'9 9.5
2015-Jun-26 20:33N 53°35' E 000°06'9 9.5
2015-Jun-26 19:34N 53°38' W 000°09'  

Dump ship's entire track history